sensor_id;sensor_type;location;lat;lon;timestamp;P1;durP1;ratioP1;P2;durP2;ratioP2
68700;SDS011;55682;51.114;5.882;2024-01-30T00:01:53;9.63;;;9.63;;
68700;SDS011;55682;51.114;5.882;2024-01-30T00:04:19;9.74;;;9.74;;
68700;SDS011;55682;51.114;5.882;2024-01-30T00:06:44;10.32;;;10.32;;
68700;SDS011;55682;51.114;5.882;2024-01-30T00:09:10;10.02;;;10.02;;
68700;SDS011;55682;51.114;5.882;2024-01-30T00:11:36;9.62;;;9.62;;
68700;SDS011;55682;51.114;5.882;2024-01-30T00:14:03;9.84;;;9.84;;
68700;SDS011;55682;51.114;5.882;2024-01-30T00:16:29;9.77;;;9.77;;
68700;SDS011;55682;51.114;5.882;2024-01-30T00:18:55;9.89;;;9.87;;
68700;SDS011;55682;51.114;5.882;2024-01-30T00:21:21;9.64;;;9.64;;
68700;SDS011;55682;51.114;5.882;2024-01-30T00:23:46;9.72;;;9.72;;
68700;SDS011;55682;51.114;5.882;2024-01-30T00:26:12;9.52;;;9.52;;
68700;SDS011;55682;51.114;5.882;2024-01-30T00:28:40;9.79;;;9.79;;
68700;SDS011;55682;51.114;5.882;2024-01-30T00:31:06;9.86;;;9.86;;
68700;SDS011;55682;51.114;5.882;2024-01-30T00:33:32;9.74;;;9.74;;
68700;SDS011;55682;51.114;5.882;2024-01-30T00:35:58;9.75;;;9.75;;
68700;SDS011;55682;51.114;5.882;2024-01-30T00:38:24;10.17;;;10.17;;
68700;SDS011;55682;51.114;5.882;2024-01-30T00:40:49;10.10;;;10.10;;
68700;SDS011;55682;51.114;5.882;2024-01-30T00:43:15;10.17;;;10.17;;
68700;SDS011;55682;51.114;5.882;2024-01-30T00:45:41;9.86;;;9.86;;
68700;SDS011;55682;51.114;5.882;2024-01-30T00:48:06;10.11;;;10.11;;
68700;SDS011;55682;51.114;5.882;2024-01-30T00:50:32;9.93;;;9.91;;
68700;SDS011;55682;51.114;5.882;2024-01-30T00:52:58;9.73;;;9.73;;
68700;SDS011;55682;51.114;5.882;2024-01-30T00:55:23;9.80;;;9.80;;
68700;SDS011;55682;51.114;5.882;2024-01-30T00:57:49;9.85;;;9.85;;
68700;SDS011;55682;51.114;5.882;2024-01-30T01:00:15;10.01;;;10.01;;
68700;SDS011;55682;51.114;5.882;2024-01-30T01:02:42;9.89;;;9.89;;
68700;SDS011;55682;51.114;5.882;2024-01-30T01:05:08;10.01;;;10.00;;
68700;SDS011;55682;51.114;5.882;2024-01-30T01:07:34;9.97;;;9.95;;
68700;SDS011;55682;51.114;5.882;2024-01-30T01:10:00;10.21;;;10.20;;
68700;SDS011;55682;51.114;5.882;2024-01-30T01:12:27;10.03;;;10.03;;
68700;SDS011;55682;51.114;5.882;2024-01-30T01:14:53;10.19;;;10.19;;
68700;SDS011;55682;51.114;5.882;2024-01-30T01:17:19;10.21;;;10.21;;
68700;SDS011;55682;51.114;5.882;2024-01-30T01:19:44;10.15;;;10.15;;
68700;SDS011;55682;51.114;5.882;2024-01-30T01:22:10;9.98;;;9.98;;
68700;SDS011;55682;51.114;5.882;2024-01-30T01:24:36;10.09;;;10.09;;
68700;SDS011;55682;51.114;5.882;2024-01-30T01:27:02;9.90;;;9.90;;
68700;SDS011;55682;51.114;5.882;2024-01-30T01:29:28;9.87;;;9.87;;
68700;SDS011;55682;51.114;5.882;2024-01-30T01:31:54;10.08;;;10.08;;
68700;SDS011;55682;51.114;5.882;2024-01-30T01:34:21;10.17;;;10.17;;
68700;SDS011;55682;51.114;5.882;2024-01-30T01:36:47;10.23;;;10.23;;
68700;SDS011;55682;51.114;5.882;2024-01-30T01:39:12;10.15;;;10.15;;
68700;SDS011;55682;51.114;5.882;2024-01-30T01:41:38;10.24;;;10.24;;
68700;SDS011;55682;51.114;5.882;2024-01-30T01:44:04;9.85;;;9.85;;
68700;SDS011;55682;51.114;5.882;2024-01-30T01:46:31;9.73;;;9.73;;
68700;SDS011;55682;51.114;5.882;2024-01-30T01:48:58;10.08;;;10.08;;
68700;SDS011;55682;51.114;5.882;2024-01-30T01:51:27;9.94;;;9.94;;
68700;SDS011;55682;51.114;5.882;2024-01-30T01:53:56;10.34;;;10.34;;
68700;SDS011;55682;51.114;5.882;2024-01-30T01:56:24;9.61;;;9.61;;
68700;SDS011;55682;51.114;5.882;2024-01-30T01:58:51;9.61;;;9.60;;
68700;SDS011;55682;51.114;5.882;2024-01-30T02:01:20;10.02;;;9.96;;
68700;SDS011;55682;51.114;5.882;2024-01-30T02:03:46;10.07;;;10.07;;
68700;SDS011;55682;51.114;5.882;2024-01-30T02:06:15;10.01;;;10.01;;
68700;SDS011;55682;51.114;5.882;2024-01-30T02:08:41;9.79;;;9.79;;
68700;SDS011;55682;51.114;5.882;2024-01-30T02:11:07;9.57;;;9.57;;
68700;SDS011;55682;51.114;5.882;2024-01-30T02:13:35;9.69;;;9.69;;
68700;SDS011;55682;51.114;5.882;2024-01-30T02:16:01;9.37;;;9.37;;
68700;SDS011;55682;51.114;5.882;2024-01-30T02:18:27;9.15;;;9.15;;
68700;SDS011;55682;51.114;5.882;2024-01-30T02:20:53;9.54;;;9.54;;
68700;SDS011;55682;51.114;5.882;2024-01-30T02:23:19;9.03;;;9.03;;
68700;SDS011;55682;51.114;5.882;2024-01-30T02:25:45;9.03;;;9.03;;
68700;SDS011;55682;51.114;5.882;2024-01-30T02:28:11;9.54;;;9.51;;
68700;SDS011;55682;51.114;5.882;2024-01-30T02:30:44;9.09;;;9.01;;
68700;SDS011;55682;51.114;5.882;2024-01-30T02:33:10;9.03;;;9.03;;
68700;SDS011;55682;51.114;5.882;2024-01-30T02:35:36;9.28;;;9.28;;
68700;SDS011;55682;51.114;5.882;2024-01-30T02:38:01;9.18;;;9.18;;
68700;SDS011;55682;51.114;5.882;2024-01-30T02:40:27;8.39;;;8.39;;
68700;SDS011;55682;51.114;5.882;2024-01-30T02:42:53;8.56;;;8.56;;
68700;SDS011;55682;51.114;5.882;2024-01-30T02:45:18;8.44;;;8.44;;
68700;SDS011;55682;51.114;5.882;2024-01-30T02:47:45;8.76;;;8.76;;
68700;SDS011;55682;51.114;5.882;2024-01-30T02:50:11;8.03;;;8.03;;
68700;SDS011;55682;51.114;5.882;2024-01-30T02:52:38;8.31;;;8.31;;
68700;SDS011;55682;51.114;5.882;2024-01-30T02:55:03;8.46;;;8.46;;
68700;SDS011;55682;51.114;5.882;2024-01-30T02:57:29;8.16;;;8.14;;
68700;SDS011;55682;51.114;5.882;2024-01-30T02:59:55;7.99;;;7.99;;
68700;SDS011;55682;51.114;5.882;2024-01-30T03:02:21;8.09;;;8.09;;
68700;SDS011;55682;51.114;5.882;2024-01-30T03:04:46;7.86;;;7.86;;
68700;SDS011;55682;51.114;5.882;2024-01-30T03:07:12;7.47;;;7.47;;
68700;SDS011;55682;51.114;5.882;2024-01-30T03:09:38;7.79;;;7.79;;
68700;SDS011;55682;51.114;5.882;2024-01-30T03:12:04;7.41;;;7.41;;
68700;SDS011;55682;51.114;5.882;2024-01-30T03:14:30;7.57;;;7.57;;
68700;SDS011;55682;51.114;5.882;2024-01-30T03:16:57;7.49;;;7.49;;
68700;SDS011;55682;51.114;5.882;2024-01-30T03:19:23;7.30;;;7.30;;
68700;SDS011;55682;51.114;5.882;2024-01-30T03:21:49;6.95;;;6.95;;
68700;SDS011;55682;51.114;5.882;2024-01-30T03:24:15;7.01;;;7.01;;
68700;SDS011;55682;51.114;5.882;2024-01-30T03:26:41;6.54;;;6.54;;
68700;SDS011;55682;51.114;5.882;2024-01-30T03:29:06;7.03;;;7.03;;
68700;SDS011;55682;51.114;5.882;2024-01-30T03:31:32;6.67;;;6.67;;
68700;SDS011;55682;51.114;5.882;2024-01-30T03:33:58;6.49;;;6.49;;
68700;SDS011;55682;51.114;5.882;2024-01-30T03:36:24;6.58;;;6.58;;
68700;SDS011;55682;51.114;5.882;2024-01-30T03:38:49;6.58;;;6.58;;
68700;SDS011;55682;51.114;5.882;2024-01-30T03:41:15;6.98;;;6.98;;
68700;SDS011;55682;51.114;5.882;2024-01-30T03:43:41;6.63;;;6.63;;
68700;SDS011;55682;51.114;5.882;2024-01-30T03:46:07;6.62;;;6.62;;
68700;SDS011;55682;51.114;5.882;2024-01-30T03:48:32;6.31;;;6.31;;
68700;SDS011;55682;51.114;5.882;2024-01-30T03:50:58;6.51;;;6.51;;
68700;SDS011;55682;51.114;5.882;2024-01-30T03:53:24;6.21;;;6.21;;
68700;SDS011;55682;51.114;5.882;2024-01-30T03:55:49;6.28;;;6.28;;
68700;SDS011;55682;51.114;5.882;2024-01-30T03:58:15;6.08;;;6.08;;
68700;SDS011;55682;51.114;5.882;2024-01-30T04:00:40;6.33;;;6.33;;
68700;SDS011;55682;51.114;5.882;2024-01-30T04:03:06;6.70;;;6.70;;
68700;SDS011;55682;51.114;5.882;2024-01-30T04:05:32;6.23;;;6.23;;
68700;SDS011;55682;51.114;5.882;2024-01-30T04:07:59;6.28;;;6.28;;
68700;SDS011;55682;51.114;5.882;2024-01-30T04:10:25;6.26;;;6.26;;
68700;SDS011;55682;51.114;5.882;2024-01-30T04:12:51;5.60;;;5.60;;
68700;SDS011;55682;51.114;5.882;2024-01-30T04:15:17;6.08;;;6.07;;
68700;SDS011;55682;51.114;5.882;2024-01-30T04:17:43;6.27;;;6.27;;
68700;SDS011;55682;51.114;5.882;2024-01-30T04:20:15;5.78;;;5.78;;
68700;SDS011;55682;51.114;5.882;2024-01-30T04:22:45;5.91;;;5.91;;
68700;SDS011;55682;51.114;5.882;2024-01-30T04:25:14;6.05;;;6.05;;
68700;SDS011;55682;51.114;5.882;2024-01-30T04:27:40;5.63;;;5.63;;
68700;SDS011;55682;51.114;5.882;2024-01-30T04:30:06;6.08;;;6.08;;
68700;SDS011;55682;51.114;5.882;2024-01-30T04:32:32;5.68;;;5.68;;
68700;SDS011;55682;51.114;5.882;2024-01-30T04:34:58;6.09;;;6.09;;
68700;SDS011;55682;51.114;5.882;2024-01-30T04:37:24;6.32;;;6.32;;
68700;SDS011;55682;51.114;5.882;2024-01-30T04:39:50;6.12;;;6.12;;
68700;SDS011;55682;51.114;5.882;2024-01-30T04:42:16;5.97;;;5.97;;
68700;SDS011;55682;51.114;5.882;2024-01-30T04:44:42;6.13;;;6.13;;
68700;SDS011;55682;51.114;5.882;2024-01-30T04:47:08;6.42;;;6.42;;
68700;SDS011;55682;51.114;5.882;2024-01-30T04:49:36;5.98;;;5.98;;
68700;SDS011;55682;51.114;5.882;2024-01-30T04:52:02;5.81;;;5.81;;
68700;SDS011;55682;51.114;5.882;2024-01-30T04:54:27;5.80;;;5.80;;
68700;SDS011;55682;51.114;5.882;2024-01-30T04:56:53;6.43;;;6.43;;
68700;SDS011;55682;51.114;5.882;2024-01-30T04:59:19;6.13;;;6.13;;
68700;SDS011;55682;51.114;5.882;2024-01-30T05:05:31;5.92;;;5.92;;
68700;SDS011;55682;51.114;5.882;2024-01-30T05:07:57;6.04;;;6.04;;
68700;SDS011;55682;51.114;5.882;2024-01-30T05:10:23;6.05;;;6.05;;
68700;SDS011;55682;51.114;5.882;2024-01-30T05:12:48;5.93;;;5.93;;
68700;SDS011;55682;51.114;5.882;2024-01-30T05:15:14;5.92;;;5.92;;
68700;SDS011;55682;51.114;5.882;2024-01-30T05:17:40;6.19;;;6.19;;
68700;SDS011;55682;51.114;5.882;2024-01-30T05:20:05;6.19;;;6.19;;
68700;SDS011;55682;51.114;5.882;2024-01-30T05:22:32;6.29;;;6.27;;
68700;SDS011;55682;51.114;5.882;2024-01-30T05:24:58;5.73;;;5.73;;
68700;SDS011;55682;51.114;5.882;2024-01-30T05:27:23;5.75;;;5.75;;
68700;SDS011;55682;51.114;5.882;2024-01-30T05:29:49;5.57;;;5.57;;
68700;SDS011;55682;51.114;5.882;2024-01-30T05:32:15;5.69;;;5.69;;
68700;SDS011;55682;51.114;5.882;2024-01-30T05:34:40;5.85;;;5.85;;
68700;SDS011;55682;51.114;5.882;2024-01-30T05:37:06;5.52;;;5.52;;
68700;SDS011;55682;51.114;5.882;2024-01-30T05:39:32;5.49;;;5.49;;
68700;SDS011;55682;51.114;5.882;2024-01-30T05:41:58;5.85;;;5.85;;
68700;SDS011;55682;51.114;5.882;2024-01-30T05:44:24;5.69;;;5.69;;
68700;SDS011;55682;51.114;5.882;2024-01-30T05:46:49;6.07;;;6.07;;
68700;SDS011;55682;51.114;5.882;2024-01-30T05:49:15;5.26;;;5.26;;
68700;SDS011;55682;51.114;5.882;2024-01-30T05:51:40;5.31;;;5.31;;
68700;SDS011;55682;51.114;5.882;2024-01-30T05:54:06;5.52;;;5.52;;
68700;SDS011;55682;51.114;5.882;2024-01-30T05:56:32;5.70;;;5.70;;
68700;SDS011;55682;51.114;5.882;2024-01-30T05:58:57;5.96;;;5.96;;
68700;SDS011;55682;51.114;5.882;2024-01-30T06:01:23;5.98;;;5.98;;
68700;SDS011;55682;51.114;5.882;2024-01-30T06:03:49;5.48;;;5.48;;
68700;SDS011;55682;51.114;5.882;2024-01-30T06:06:14;5.26;;;5.26;;
68700;SDS011;55682;51.114;5.882;2024-01-30T06:08:40;5.67;;;5.67;;
68700;SDS011;55682;51.114;5.882;2024-01-30T06:11:09;5.56;;;5.56;;
68700;SDS011;55682;51.114;5.882;2024-01-30T06:13:36;5.62;;;5.62;;
68700;SDS011;55682;51.114;5.882;2024-01-30T06:16:01;5.55;;;5.55;;
68700;SDS011;55682;51.114;5.882;2024-01-30T06:18:27;5.83;;;5.83;;
68700;SDS011;55682;51.114;5.882;2024-01-30T06:20:54;5.72;;;5.72;;
68700;SDS011;55682;51.114;5.882;2024-01-30T06:23:20;5.33;;;5.33;;
68700;SDS011;55682;51.114;5.882;2024-01-30T06:25:45;5.41;;;5.41;;
68700;SDS011;55682;51.114;5.882;2024-01-30T06:28:11;5.40;;;5.40;;
68700;SDS011;55682;51.114;5.882;2024-01-30T06:30:37;5.28;;;5.28;;
68700;SDS011;55682;51.114;5.882;2024-01-30T06:33:02;5.58;;;5.58;;
68700;SDS011;55682;51.114;5.882;2024-01-30T06:35:28;5.83;;;5.83;;
68700;SDS011;55682;51.114;5.882;2024-01-30T06:37:54;5.80;;;5.80;;
68700;SDS011;55682;51.114;5.882;2024-01-30T06:40:19;5.65;;;5.65;;
68700;SDS011;55682;51.114;5.882;2024-01-30T06:42:45;5.73;;;5.73;;
68700;SDS011;55682;51.114;5.882;2024-01-30T06:45:10;5.10;;;5.10;;
68700;SDS011;55682;51.114;5.882;2024-01-30T06:47:36;5.28;;;5.28;;
68700;SDS011;55682;51.114;5.882;2024-01-30T06:50:02;5.80;;;5.80;;
68700;SDS011;55682;51.114;5.882;2024-01-30T06:52:28;5.96;;;5.96;;
68700;SDS011;55682;51.114;5.882;2024-01-30T06:54:54;5.90;;;5.90;;
68700;SDS011;55682;51.114;5.882;2024-01-30T06:57:19;5.22;;;5.22;;
68700;SDS011;55682;51.114;5.882;2024-01-30T06:59:45;5.40;;;5.40;;
68700;SDS011;55682;51.114;5.882;2024-01-30T07:02:11;5.84;;;5.84;;
68700;SDS011;55682;51.114;5.882;2024-01-30T07:04:36;5.89;;;5.89;;
68700;SDS011;55682;51.114;5.882;2024-01-30T07:07:03;5.71;;;5.71;;
68700;SDS011;55682;51.114;5.882;2024-01-30T07:09:30;6.04;;;6.04;;
68700;SDS011;55682;51.114;5.882;2024-01-30T07:11:56;5.65;;;5.65;;
68700;SDS011;55682;51.114;5.882;2024-01-30T07:14:23;5.85;;;5.85;;
68700;SDS011;55682;51.114;5.882;2024-01-30T07:16:49;5.90;;;5.90;;
68700;SDS011;55682;51.114;5.882;2024-01-30T07:19:15;6.11;;;6.11;;
68700;SDS011;55682;51.114;5.882;2024-01-30T07:21:41;6.00;;;6.00;;
68700;SDS011;55682;51.114;5.882;2024-01-30T07:24:07;6.03;;;6.03;;
68700;SDS011;55682;51.114;5.882;2024-01-30T07:26:33;6.40;;;6.40;;
68700;SDS011;55682;51.114;5.882;2024-01-30T07:28:58;5.81;;;5.81;;
68700;SDS011;55682;51.114;5.882;2024-01-30T07:31:24;5.92;;;5.92;;
68700;SDS011;55682;51.114;5.882;2024-01-30T07:33:50;5.75;;;5.75;;
68700;SDS011;55682;51.114;5.882;2024-01-30T07:36:15;6.32;;;6.32;;
68700;SDS011;55682;51.114;5.882;2024-01-30T07:38:41;6.08;;;6.08;;
68700;SDS011;55682;51.114;5.882;2024-01-30T07:41:06;6.17;;;6.17;;
68700;SDS011;55682;51.114;5.882;2024-01-30T07:43:32;6.41;;;6.41;;
68700;SDS011;55682;51.114;5.882;2024-01-30T07:45:59;6.44;;;6.44;;
68700;SDS011;55682;51.114;5.882;2024-01-30T07:48:26;6.30;;;6.30;;
68700;SDS011;55682;51.114;5.882;2024-01-30T07:50:52;6.38;;;6.38;;
68700;SDS011;55682;51.114;5.882;2024-01-30T07:53:18;5.90;;;5.90;;
68700;SDS011;55682;51.114;5.882;2024-01-30T07:55:44;6.39;;;6.39;;
68700;SDS011;55682;51.114;5.882;2024-01-30T07:58:12;6.32;;;6.32;;
68700;SDS011;55682;51.114;5.882;2024-01-30T08:00:37;6.48;;;6.48;;
68700;SDS011;55682;51.114;5.882;2024-01-30T08:03:03;6.08;;;6.08;;
68700;SDS011;55682;51.114;5.882;2024-01-30T08:05:29;6.11;;;6.11;;
68700;SDS011;55682;51.114;5.882;2024-01-30T08:07:56;6.49;;;6.49;;
68700;SDS011;55682;51.114;5.882;2024-01-30T08:10:21;6.78;;;6.78;;
68700;SDS011;55682;51.114;5.882;2024-01-30T08:12:47;6.59;;;6.59;;
68700;SDS011;55682;51.114;5.882;2024-01-30T08:15:12;6.73;;;6.73;;
68700;SDS011;55682;51.114;5.882;2024-01-30T08:17:38;6.77;;;6.77;;
68700;SDS011;55682;51.114;5.882;2024-01-30T08:20:04;6.85;;;6.85;;
68700;SDS011;55682;51.114;5.882;2024-01-30T08:22:30;6.81;;;6.81;;
68700;SDS011;55682;51.114;5.882;2024-01-30T08:24:56;6.80;;;6.79;;
68700;SDS011;55682;51.114;5.882;2024-01-30T08:27:22;7.04;;;7.02;;
68700;SDS011;55682;51.114;5.882;2024-01-30T08:29:47;6.66;;;6.66;;
68700;SDS011;55682;51.114;5.882;2024-01-30T08:32:13;6.70;;;6.70;;
68700;SDS011;55682;51.114;5.882;2024-01-30T08:34:39;6.66;;;6.66;;
68700;SDS011;55682;51.114;5.882;2024-01-30T08:37:04;6.69;;;6.69;;
68700;SDS011;55682;51.114;5.882;2024-01-30T08:39:30;7.25;;;7.25;;
68700;SDS011;55682;51.114;5.882;2024-01-30T08:41:56;6.78;;;6.78;;
68700;SDS011;55682;51.114;5.882;2024-01-30T08:44:22;6.68;;;6.68;;
68700;SDS011;55682;51.114;5.882;2024-01-30T08:46:47;6.51;;;6.51;;
68700;SDS011;55682;51.114;5.882;2024-01-30T08:49:16;6.64;;;6.64;;
68700;SDS011;55682;51.114;5.882;2024-01-30T08:51:42;6.78;;;6.78;;
68700;SDS011;55682;51.114;5.882;2024-01-30T08:54:08;6.89;;;6.89;;
68700;SDS011;55682;51.114;5.882;2024-01-30T08:56:33;7.11;;;7.11;;
68700;SDS011;55682;51.114;5.882;2024-01-30T08:58:59;6.83;;;6.83;;
68700;SDS011;55682;51.114;5.882;2024-01-30T09:01:25;6.88;;;6.88;;
68700;SDS011;55682;51.114;5.882;2024-01-30T09:03:51;6.67;;;6.67;;
68700;SDS011;55682;51.114;5.882;2024-01-30T09:06:17;6.67;;;6.67;;
68700;SDS011;55682;51.114;5.882;2024-01-30T09:08:43;5.79;;;5.79;;
68700;SDS011;55682;51.114;5.882;2024-01-30T09:11:12;6.85;;;6.85;;
68700;SDS011;55682;51.114;5.882;2024-01-30T09:13:38;6.87;;;6.87;;
68700;SDS011;55682;51.114;5.882;2024-01-30T09:16:04;7.04;;;7.04;;
68700;SDS011;55682;51.114;5.882;2024-01-30T09:18:30;7.25;;;7.25;;
68700;SDS011;55682;51.114;5.882;2024-01-30T09:20:56;6.68;;;6.68;;
68700;SDS011;55682;51.114;5.882;2024-01-30T09:23:22;7.60;;;7.60;;
68700;SDS011;55682;51.114;5.882;2024-01-30T09:25:48;6.83;;;6.83;;
68700;SDS011;55682;51.114;5.882;2024-01-30T09:28:14;7.69;;;7.69;;
68700;SDS011;55682;51.114;5.882;2024-01-30T09:30:40;7.41;;;7.41;;
68700;SDS011;55682;51.114;5.882;2024-01-30T09:33:06;7.20;;;7.20;;
68700;SDS011;55682;51.114;5.882;2024-01-30T09:35:32;6.92;;;6.92;;
68700;SDS011;55682;51.114;5.882;2024-01-30T09:37:58;6.90;;;6.90;;
68700;SDS011;55682;51.114;5.882;2024-01-30T09:40:24;6.77;;;6.77;;
68700;SDS011;55682;51.114;5.882;2024-01-30T09:42:50;7.19;;;7.19;;
68700;SDS011;55682;51.114;5.882;2024-01-30T09:45:20;7.28;;;7.28;;
68700;SDS011;55682;51.114;5.882;2024-01-30T09:47:49;6.88;;;6.88;;
68700;SDS011;55682;51.114;5.882;2024-01-30T09:50:16;7.08;;;7.08;;
68700;SDS011;55682;51.114;5.882;2024-01-30T09:52:42;6.82;;;6.82;;
68700;SDS011;55682;51.114;5.882;2024-01-30T09:55:09;7.49;;;7.49;;
68700;SDS011;55682;51.114;5.882;2024-01-30T09:57:35;6.80;;;6.80;;
68700;SDS011;55682;51.114;5.882;2024-01-30T10:00:02;6.79;;;6.79;;
68700;SDS011;55682;51.114;5.882;2024-01-30T10:02:38;6.72;;;6.72;;
68700;SDS011;55682;51.114;5.882;2024-01-30T10:05:04;6.75;;;6.75;;
68700;SDS011;55682;51.114;5.882;2024-01-30T10:07:31;7.04;;;7.04;;
68700;SDS011;55682;51.114;5.882;2024-01-30T10:09:56;7.30;;;7.30;;
68700;SDS011;55682;51.114;5.882;2024-01-30T10:12:22;6.91;;;6.91;;
68700;SDS011;55682;51.114;5.882;2024-01-30T10:14:48;6.84;;;6.84;;
68700;SDS011;55682;51.114;5.882;2024-01-30T10:17:14;7.03;;;7.03;;
68700;SDS011;55682;51.114;5.882;2024-01-30T10:19:39;7.10;;;7.10;;
68700;SDS011;55682;51.114;5.882;2024-01-30T10:22:06;7.61;;;7.61;;
68700;SDS011;55682;51.114;5.882;2024-01-30T10:24:35;6.60;;;6.60;;
68700;SDS011;55682;51.114;5.882;2024-01-30T10:27:01;7.12;;;7.12;;
68700;SDS011;55682;51.114;5.882;2024-01-30T10:29:27;6.76;;;6.76;;
68700;SDS011;55682;51.114;5.882;2024-01-30T10:32:12;6.85;;;6.85;;
68700;SDS011;55682;51.114;5.882;2024-01-30T10:34:37;6.93;;;6.93;;
68700;SDS011;55682;51.114;5.882;2024-01-30T10:37:12;6.71;;;6.70;;
68700;SDS011;55682;51.114;5.882;2024-01-30T10:39:40;6.79;;;6.79;;
68700;SDS011;55682;51.114;5.882;2024-01-30T10:42:11;7.39;;;7.39;;
68700;SDS011;55682;51.114;5.882;2024-01-30T10:47:26;7.27;;;7.27;;
68700;SDS011;55682;51.114;5.882;2024-01-30T10:49:53;6.66;;;6.65;;
68700;SDS011;55682;51.114;5.882;2024-01-30T10:52:21;7.46;;;7.45;;
68700;SDS011;55682;51.114;5.882;2024-01-30T10:54:49;6.99;;;6.99;;
68700;SDS011;55682;51.114;5.882;2024-01-30T10:57:16;6.67;;;6.67;;
68700;SDS011;55682;51.114;5.882;2024-01-30T10:59:43;7.11;;;7.11;;
68700;SDS011;55682;51.114;5.882;2024-01-30T11:02:10;7.38;;;7.38;;
68700;SDS011;55682;51.114;5.882;2024-01-30T11:04:37;7.18;;;7.17;;
68700;SDS011;55682;51.114;5.882;2024-01-30T11:07:13;7.01;;;7.01;;
68700;SDS011;55682;51.114;5.882;2024-01-30T11:09:52;7.35;;;7.35;;
68700;SDS011;55682;51.114;5.882;2024-01-30T11:12:22;7.24;;;7.24;;
68700;SDS011;55682;51.114;5.882;2024-01-30T11:14:50;7.33;;;7.33;;
68700;SDS011;55682;51.114;5.882;2024-01-30T11:17:39;7.71;;;7.71;;
68700;SDS011;55682;51.114;5.882;2024-01-30T11:20:13;7.31;;;7.31;;
68700;SDS011;55682;51.114;5.882;2024-01-30T11:22:41;7.41;;;7.41;;
68700;SDS011;55682;51.114;5.882;2024-01-30T11:25:14;7.88;;;7.88;;
68700;SDS011;55682;51.114;5.882;2024-01-30T11:27:41;7.37;;;7.34;;
68700;SDS011;55682;51.114;5.882;2024-01-30T11:30:08;7.25;;;7.14;;
68700;SDS011;55682;51.114;5.882;2024-01-30T11:32:35;7.68;;;7.61;;
68700;SDS011;55682;51.114;5.882;2024-01-30T11:35:03;7.58;;;7.58;;
68700;SDS011;55682;51.114;5.882;2024-01-30T11:37:35;7.07;;;7.07;;
68700;SDS011;55682;51.114;5.882;2024-01-30T11:40:05;7.26;;;7.26;;
68700;SDS011;55682;51.114;5.882;2024-01-30T11:42:32;7.41;;;7.41;;
68700;SDS011;55682;51.114;5.882;2024-01-30T11:44:59;7.48;;;7.48;;
68700;SDS011;55682;51.114;5.882;2024-01-30T11:47:28;7.40;;;7.40;;
68700;SDS011;55682;51.114;5.882;2024-01-30T11:49:54;7.63;;;7.63;;
68700;SDS011;55682;51.114;5.882;2024-01-30T11:52:19;7.06;;;7.06;;
68700;SDS011;55682;51.114;5.882;2024-01-30T11:54:45;7.01;;;7.01;;
68700;SDS011;55682;51.114;5.882;2024-01-30T11:57:11;6.55;;;6.55;;
68700;SDS011;55682;51.114;5.882;2024-01-30T11:59:37;7.08;;;7.08;;
68700;SDS011;55682;51.114;5.882;2024-01-30T12:02:03;7.30;;;7.28;;
68700;SDS011;55682;51.114;5.882;2024-01-30T12:04:29;7.33;;;7.33;;
68700;SDS011;55682;51.114;5.882;2024-01-30T12:06:55;7.88;;;7.88;;
68700;SDS011;55682;51.114;5.882;2024-01-30T12:09:21;7.66;;;7.66;;
68700;SDS011;55682;51.114;5.882;2024-01-30T12:11:48;7.88;;;7.88;;
68700;SDS011;55682;51.114;5.882;2024-01-30T12:14:15;7.36;;;7.36;;
68700;SDS011;55682;51.114;5.882;2024-01-30T12:16:42;8.03;;;8.03;;
68700;SDS011;55682;51.114;5.882;2024-01-30T12:19:08;7.56;;;7.56;;
68700;SDS011;55682;51.114;5.882;2024-01-30T12:21:34;7.25;;;7.24;;
68700;SDS011;55682;51.114;5.882;2024-01-30T12:24:01;7.76;;;7.76;;
68700;SDS011;55682;51.114;5.882;2024-01-30T12:26:26;7.85;;;7.84;;
68700;SDS011;55682;51.114;5.882;2024-01-30T12:28:56;7.83;;;7.83;;
68700;SDS011;55682;51.114;5.882;2024-01-30T12:31:27;7.80;;;7.80;;
68700;SDS011;55682;51.114;5.882;2024-01-30T12:33:54;8.20;;;8.20;;
68700;SDS011;55682;51.114;5.882;2024-01-30T12:36:23;8.22;;;8.22;;
68700;SDS011;55682;51.114;5.882;2024-01-30T12:38:49;8.58;;;8.58;;
68700;SDS011;55682;51.114;5.882;2024-01-30T12:41:15;8.75;;;8.75;;
68700;SDS011;55682;51.114;5.882;2024-01-30T12:43:41;9.27;;;9.27;;
68700;SDS011;55682;51.114;5.882;2024-01-30T12:46:08;8.44;;;8.44;;
68700;SDS011;55682;51.114;5.882;2024-01-30T12:48:33;8.72;;;8.68;;
68700;SDS011;55682;51.114;5.882;2024-01-30T12:50:59;8.57;;;8.57;;
68700;SDS011;55682;51.114;5.882;2024-01-30T12:53:25;8.96;;;8.96;;
68700;SDS011;55682;51.114;5.882;2024-01-30T12:55:51;9.25;;;9.25;;
68700;SDS011;55682;51.114;5.882;2024-01-30T12:58:17;8.37;;;8.37;;
68700;SDS011;55682;51.114;5.882;2024-01-30T13:00:42;8.55;;;8.55;;
68700;SDS011;55682;51.114;5.882;2024-01-30T13:03:09;8.95;;;8.95;;
68700;SDS011;55682;51.114;5.882;2024-01-30T13:05:35;8.84;;;8.84;;
68700;SDS011;55682;51.114;5.882;2024-01-30T13:08:01;8.41;;;8.41;;
68700;SDS011;55682;51.114;5.882;2024-01-30T13:10:26;8.46;;;8.45;;
68700;SDS011;55682;51.114;5.882;2024-01-30T13:12:52;8.58;;;8.56;;
68700;SDS011;55682;51.114;5.882;2024-01-30T13:15:18;8.68;;;8.68;;
68700;SDS011;55682;51.114;5.882;2024-01-30T13:17:44;8.74;;;8.74;;
68700;SDS011;55682;51.114;5.882;2024-01-30T13:20:12;8.09;;;8.09;;
68700;SDS011;55682;51.114;5.882;2024-01-30T13:22:42;8.50;;;8.50;;
68700;SDS011;55682;51.114;5.882;2024-01-30T13:25:08;8.99;;;8.99;;
68700;SDS011;55682;51.114;5.882;2024-01-30T13:27:34;8.76;;;8.76;;
68700;SDS011;55682;51.114;5.882;2024-01-30T13:30:00;7.78;;;7.78;;
68700;SDS011;55682;51.114;5.882;2024-01-30T13:32:26;8.28;;;8.28;;
68700;SDS011;55682;51.114;5.882;2024-01-30T13:34:52;7.73;;;7.73;;
68700;SDS011;55682;51.114;5.882;2024-01-30T13:37:17;7.18;;;7.18;;
68700;SDS011;55682;51.114;5.882;2024-01-30T13:39:43;6.83;;;6.83;;
68700;SDS011;55682;51.114;5.882;2024-01-30T13:42:09;6.29;;;6.29;;
68700;SDS011;55682;51.114;5.882;2024-01-30T13:44:37;6.33;;;6.33;;
68700;SDS011;55682;51.114;5.882;2024-01-30T13:47:03;6.31;;;6.31;;
68700;SDS011;55682;51.114;5.882;2024-01-30T13:49:29;5.77;;;5.77;;
68700;SDS011;55682;51.114;5.882;2024-01-30T13:51:54;5.80;;;5.80;;
68700;SDS011;55682;51.114;5.882;2024-01-30T13:54:20;5.34;;;5.34;;
68700;SDS011;55682;51.114;5.882;2024-01-30T13:56:46;5.18;;;5.18;;
68700;SDS011;55682;51.114;5.882;2024-01-30T13:59:11;5.03;;;5.03;;
68700;SDS011;55682;51.114;5.882;2024-01-30T14:01:37;4.38;;;4.38;;
68700;SDS011;55682;51.114;5.882;2024-01-30T14:04:03;3.42;;;3.42;;
68700;SDS011;55682;51.114;5.882;2024-01-30T14:06:28;3.01;;;3.01;;
68700;SDS011;55682;51.114;5.882;2024-01-30T14:08:54;3.22;;;3.22;;
68700;SDS011;55682;51.114;5.882;2024-01-30T14:11:20;2.87;;;2.87;;
68700;SDS011;55682;51.114;5.882;2024-01-30T14:13:46;2.87;;;2.87;;
68700;SDS011;55682;51.114;5.882;2024-01-30T14:16:11;2.77;;;2.77;;
68700;SDS011;55682;51.114;5.882;2024-01-30T14:18:37;2.27;;;2.27;;
68700;SDS011;55682;51.114;5.882;2024-01-30T14:21:03;2.13;;;2.13;;
68700;SDS011;55682;51.114;5.882;2024-01-30T14:23:29;2.20;;;2.20;;
68700;SDS011;55682;51.114;5.882;2024-01-30T14:25:54;2.02;;;2.02;;
68700;SDS011;55682;51.114;5.882;2024-01-30T14:28:20;2.19;;;2.19;;
68700;SDS011;55682;51.114;5.882;2024-01-30T14:30:46;1.79;;;1.79;;
68700;SDS011;55682;51.114;5.882;2024-01-30T14:33:12;1.93;;;1.93;;
68700;SDS011;55682;51.114;5.882;2024-01-30T14:35:38;1.41;;;1.41;;
68700;SDS011;55682;51.114;5.882;2024-01-30T14:38:04;1.29;;;1.29;;
68700;SDS011;55682;51.114;5.882;2024-01-30T14:40:30;1.21;;;1.21;;
68700;SDS011;55682;51.114;5.882;2024-01-30T14:42:56;0.96;;;0.96;;
68700;SDS011;55682;51.114;5.882;2024-01-30T14:45:22;1.06;;;1.06;;
68700;SDS011;55682;51.114;5.882;2024-01-30T14:47:47;0.99;;;0.99;;